sensor_id;sensor_type;location;lat;lon;timestamp;pressure;altitude;pressure_sealevel;temperature;humidity
53719;BME280;39616;48.872;9.390;2023-04-22T00:01:02;97695.06;;;10.58;89.45
53719;BME280;39616;48.872;9.390;2023-04-22T00:03:32;97701.28;;;10.59;90.18
53719;BME280;39616;48.872;9.390;2023-04-22T00:06:02;97694.56;;;10.56;90.15
53719;BME280;39616;48.872;9.390;2023-04-22T00:08:33;97700.81;;;10.57;88.96
53719;BME280;39616;48.872;9.390;2023-04-22T00:11:03;97695.25;;;10.62;90.97
53719;BME280;39616;48.872;9.390;2023-04-22T00:13:33;97696.03;;;10.62;88.67
53719;BME280;39616;48.872;9.390;2023-04-22T00:16:05;97690.63;;;10.62;88.83
53719;BME280;39616;48.872;9.390;2023-04-22T00:18:36;97692.03;;;10.60;89.67
53719;BME280;39616;48.872;9.390;2023-04-22T00:21:06;97692.34;;;10.58;90.41
53719;BME280;39616;48.872;9.390;2023-04-22T00:23:36;97688.66;;;10.54;91.79
53719;BME280;39616;48.872;9.390;2023-04-22T00:26:07;97685.28;;;10.49;93.58
53719;BME280;39616;48.872;9.390;2023-04-22T00:28:37;97687.00;;;10.45;95.50
53719;BME280;39616;48.872;9.390;2023-04-22T00:31:07;97681.91;;;10.43;95.10
53719;BME280;39616;48.872;9.390;2023-04-22T00:33:38;97680.00;;;10.44;94.45
53719;BME280;39616;48.872;9.390;2023-04-22T00:36:08;97679.59;;;10.59;92.26
53719;BME280;39616;48.872;9.390;2023-04-22T00:38:40;97676.53;;;10.83;89.38
53719;BME280;39616;48.872;9.390;2023-04-22T00:41:10;97671.91;;;10.83;88.37
53719;BME280;39616;48.872;9.390;2023-04-22T00:43:41;97674.59;;;10.83;89.13
53719;BME280;39616;48.872;9.390;2023-04-22T00:46:11;97675.69;;;10.82;90.37
53719;BME280;39616;48.872;9.390;2023-04-22T00:48:42;97672.97;;;10.74;90.32
53719;BME280;39616;48.872;9.390;2023-04-22T00:51:14;97678.84;;;10.67;90.52
53719;BME280;39616;48.872;9.390;2023-04-22T00:53:44;97678.00;;;10.58;91.84
53719;BME280;39616;48.872;9.390;2023-04-22T00:56:15;97685.16;;;10.54;92.02
53719;BME280;39616;48.872;9.390;2023-04-22T00:58:46;97683.06;;;10.51;93.54
53719;BME280;39616;48.872;9.390;2023-04-22T01:01:16;97686.72;;;10.46;96.26
53719;BME280;39616;48.872;9.390;2023-04-22T01:03:48;97691.63;;;10.44;96.63
53719;BME280;39616;48.872;9.390;2023-04-22T01:06:21;97682.53;;;10.40;96.33
53719;BME280;39616;48.872;9.390;2023-04-22T01:08:52;97685.06;;;10.36;96.38
53719;BME280;39616;48.872;9.390;2023-04-22T01:11:23;97682.97;;;10.33;96.48
53719;BME280;39616;48.872;9.390;2023-04-22T01:13:54;97683.09;;;10.28;97.41
53719;BME280;39616;48.872;9.390;2023-04-22T01:16:24;97677.19;;;10.26;96.71
53719;BME280;39616;48.872;9.390;2023-04-22T01:18:54;97687.34;;;10.21;98.55
53719;BME280;39616;48.872;9.390;2023-04-22T01:21:26;97684.75;;;10.15;99.47
53719;BME280;39616;48.872;9.390;2023-04-22T01:23:57;97681.06;;;10.11;98.98
53719;BME280;39616;48.872;9.390;2023-04-22T01:26:27;97683.28;;;10.09;99.76
53719;BME280;39616;48.872;9.390;2023-04-22T01:29:00;97682.78;;;10.07;100.00
53719;BME280;39616;48.872;9.390;2023-04-22T01:31:31;97685.63;;;10.02;100.00
53719;BME280;39616;48.872;9.390;2023-04-22T01:34:01;97687.63;;;9.97;100.00
53719;BME280;39616;48.872;9.390;2023-04-22T01:36:32;97690.94;;;9.93;99.84
53719;BME280;39616;48.872;9.390;2023-04-22T01:39:03;97682.03;;;9.93;100.00
53719;BME280;39616;48.872;9.390;2023-04-22T01:41:33;97690.47;;;9.91;100.00
53719;BME280;39616;48.872;9.390;2023-04-22T01:44:04;97686.78;;;9.87;99.07
53719;BME280;39616;48.872;9.390;2023-04-22T01:46:34;97694.13;;;9.87;98.07
53719;BME280;39616;48.872;9.390;2023-04-22T01:49:05;97691.63;;;9.77;99.89
53719;BME280;39616;48.872;9.390;2023-04-22T01:51:35;97694.63;;;9.75;100.00
53719;BME280;39616;48.872;9.390;2023-04-22T01:54:06;97690.03;;;9.76;100.00
53719;BME280;39616;48.872;9.390;2023-04-22T01:56:37;97692.44;;;9.77;100.00
53719;BME280;39616;48.872;9.390;2023-04-22T01:59:09;97694.34;;;9.77;100.00
53719;BME280;39616;48.872;9.390;2023-04-22T02:01:39;97699.63;;;9.82;100.00
53719;BME280;39616;48.872;9.390;2023-04-22T02:04:10;97695.00;;;9.82;100.00
53719;BME280;39616;48.872;9.390;2023-04-22T02:06:40;97701.13;;;9.88;100.00
53719;BME280;39616;48.872;9.390;2023-04-22T02:09:10;97695.09;;;9.91;100.00
53719;BME280;39616;48.872;9.390;2023-04-22T02:11:40;97698.47;;;9.97;100.00
53719;BME280;39616;48.872;9.390;2023-04-22T02:14:11;97698.09;;;9.89;100.00
53719;BME280;39616;48.872;9.390;2023-04-22T02:16:41;97700.75;;;9.81;100.00
53719;BME280;39616;48.872;9.390;2023-04-22T02:19:11;97697.97;;;9.72;100.00
53719;BME280;39616;48.872;9.390;2023-04-22T02:21:42;97698.06;;;9.67;100.00
53719;BME280;39616;48.872;9.390;2023-04-22T02:24:12;97705.22;;;9.63;100.00
53719;BME280;39616;48.872;9.390;2023-04-22T02:26:42;97699.41;;;9.56;100.00
53719;BME280;39616;48.872;9.390;2023-04-22T02:29:13;97705.44;;;9.53;100.00
53719;BME280;39616;48.872;9.390;2023-04-22T02:31:43;97700.44;;;9.46;100.00
53719;BME280;39616;48.872;9.390;2023-04-22T02:34:13;97702.84;;;9.48;100.00
53719;BME280;39616;48.872;9.390;2023-04-22T02:36:44;97708.34;;;9.42;100.00
53719;BME280;39616;48.872;9.390;2023-04-22T02:39:14;97707.88;;;9.40;100.00
53719;BME280;39616;48.872;9.390;2023-04-22T02:41:44;97708.97;;;9.39;100.00
53719;BME280;39616;48.872;9.390;2023-04-22T02:44:15;97713.59;;;9.39;100.00
53719;BME280;39616;48.872;9.390;2023-04-22T02:46:45;97710.25;;;9.42;100.00
53719;BME280;39616;48.872;9.390;2023-04-22T02:49:15;97709.97;;;9.43;100.00
53719;BME280;39616;48.872;9.390;2023-04-22T02:51:45;97714.28;;;9.44;100.00
53719;BME280;39616;48.872;9.390;2023-04-22T02:54:16;97716.00;;;9.40;100.00
53719;BME280;39616;48.872;9.390;2023-04-22T02:56:46;97715.56;;;9.47;100.00
53719;BME280;39616;48.872;9.390;2023-04-22T02:59:16;97716.69;;;9.32;100.00
53719;BME280;39616;48.872;9.390;2023-04-22T03:01:47;97728.22;;;9.24;100.00
53719;BME280;39616;48.872;9.390;2023-04-22T03:04:17;97722.44;;;9.17;100.00
53719;BME280;39616;48.872;9.390;2023-04-22T03:06:51;97731.16;;;9.14;100.00
53719;BME280;39616;48.872;9.390;2023-04-22T03:09:21;97725.81;;;9.09;100.00
53719;BME280;39616;48.872;9.390;2023-04-22T03:11:51;97716.50;;;9.01;100.00
53719;BME280;39616;48.872;9.390;2023-04-22T03:14:22;97716.22;;;9.03;100.00
53719;BME280;39616;48.872;9.390;2023-04-22T03:16:52;97719.22;;;9.01;100.00
53719;BME280;39616;48.872;9.390;2023-04-22T03:19:22;97716.03;;;8.99;100.00
53719;BME280;39616;48.872;9.390;2023-04-22T03:21:52;97712.81;;;8.97;100.00
53719;BME280;39616;48.872;9.390;2023-04-22T03:24:23;97717.41;;;8.97;100.00
53719;BME280;39616;48.872;9.390;2023-04-22T03:26:53;97715.03;;;8.95;100.00
53719;BME280;39616;48.872;9.390;2023-04-22T03:29:23;97715.31;;;8.93;100.00
53719;BME280;39616;48.872;9.390;2023-04-22T03:31:54;97714.31;;;8.89;100.00
53719;BME280;39616;48.872;9.390;2023-04-22T03:34:24;97711.81;;;8.93;100.00
53719;BME280;39616;48.872;9.390;2023-04-22T03:36:54;97715.41;;;8.88;100.00
53719;BME280;39616;48.872;9.390;2023-04-22T03:39:25;97717.81;;;8.90;100.00
53719;BME280;39616;48.872;9.390;2023-04-22T03:41:55;97718.81;;;8.94;100.00
53719;BME280;39616;48.872;9.390;2023-04-22T03:44:25;97716.41;;;8.92;100.00
53719;BME280;39616;48.872;9.390;2023-04-22T03:46:56;97710.22;;;8.92;100.00
53719;BME280;39616;48.872;9.390;2023-04-22T03:49:26;97715.63;;;8.92;100.00
53719;BME280;39616;48.872;9.390;2023-04-22T03:51:56;97704.59;;;8.88;100.00
53719;BME280;39616;48.872;9.390;2023-04-22T03:54:27;97709.50;;;8.86;100.00
53719;BME280;39616;48.872;9.390;2023-04-22T03:56:57;97708.22;;;8.84;100.00
53719;BME280;39616;48.872;9.390;2023-04-22T03:59:27;97709.00;;;8.84;100.00
53719;BME280;39616;48.872;9.390;2023-04-22T04:01:58;97711.41;;;8.86;100.00
53719;BME280;39616;48.872;9.390;2023-04-22T04:04:28;97708.78;;;8.94;100.00
53719;BME280;39616;48.872;9.390;2023-04-22T04:06:59;97712.94;;;9.06;100.00
53719;BME280;39616;48.872;9.390;2023-04-22T04:09:29;97704.50;;;9.21;100.00
53719;BME280;39616;48.872;9.390;2023-04-22T04:11:59;97700.28;;;9.29;100.00
53719;BME280;39616;48.872;9.390;2023-04-22T04:14:30;97697.97;;;9.36;100.00
53719;BME280;39616;48.872;9.390;2023-04-22T04:17:00;97695.94;;;9.41;100.00
53719;BME280;39616;48.872;9.390;2023-04-22T04:19:30;97698.34;;;9.43;100.00
53719;BME280;39616;48.872;9.390;2023-04-22T04:22:01;97704.44;;;9.49;100.00
53719;BME280;39616;48.872;9.390;2023-04-22T04:24:31;97693.94;;;9.47;100.00
53719;BME280;39616;48.872;9.390;2023-04-22T04:27:02;97691.03;;;9.43;100.00
53719;BME280;39616;48.872;9.390;2023-04-22T04:29:34;97691.81;;;9.44;100.00
53719;BME280;39616;48.872;9.390;2023-04-22T04:32:04;97686.53;;;9.39;100.00
53719;BME280;39616;48.872;9.390;2023-04-22T04:34:35;97688.53;;;9.33;100.00
53719;BME280;39616;48.872;9.390;2023-04-22T04:37:06;97689.94;;;9.31;100.00
53719;BME280;39616;48.872;9.390;2023-04-22T04:39:39;97678.09;;;9.40;100.00
53719;BME280;39616;48.872;9.390;2023-04-22T04:42:11;97686.28;;;9.49;98.46
53719;BME280;39616;48.872;9.390;2023-04-22T04:44:43;97689.19;;;9.53;98.72
53719;BME280;39616;48.872;9.390;2023-04-22T04:47:13;97693.00;;;9.52;98.99
53719;BME280;39616;48.872;9.390;2023-04-22T04:49:44;97693.31;;;9.50;99.42
53719;BME280;39616;48.872;9.390;2023-04-22T04:52:15;97695.31;;;9.44;100.00
53719;BME280;39616;48.872;9.390;2023-04-22T04:54:45;97701.34;;;9.28;100.00
53719;BME280;39616;48.872;9.390;2023-04-22T04:57:15;97699.47;;;9.14;100.00
53719;BME280;39616;48.872;9.390;2023-04-22T04:59:46;97707.72;;;8.95;100.00
53719;BME280;39616;48.872;9.390;2023-04-22T05:02:16;97699.00;;;8.85;100.00
53719;BME280;39616;48.872;9.390;2023-04-22T05:04:46;97698.88;;;8.76;100.00
53719;BME280;39616;48.872;9.390;2023-04-22T05:07:17;97706.19;;;8.76;100.00
53719;BME280;39616;48.872;9.390;2023-04-22T05:09:47;97714.50;;;8.79;100.00
53719;BME280;39616;48.872;9.390;2023-04-22T05:12:17;97710.41;;;8.82;100.00
53719;BME280;39616;48.872;9.390;2023-04-22T05:14:48;97711.19;;;8.82;100.00
53719;BME280;39616;48.872;9.390;2023-04-22T05:17:18;97707.50;;;8.78;100.00
53719;BME280;39616;48.872;9.390;2023-04-22T05:19:49;97710.19;;;8.78;100.00
53719;BME280;39616;48.872;9.390;2023-04-22T05:22:20;97707.09;;;8.85;100.00
53719;BME280;39616;48.872;9.390;2023-04-22T05:24:50;97708.69;;;8.86;100.00
53719;BME280;39616;48.872;9.390;2023-04-22T05:27:21;97710.00;;;8.88;100.00
53719;BME280;39616;48.872;9.390;2023-04-22T05:29:51;97712.59;;;8.93;100.00
53719;BME280;39616;48.872;9.390;2023-04-22T05:32:21;97705.50;;;8.98;100.00
53719;BME280;39616;48.872;9.390;2023-04-22T05:34:52;97697.56;;;9.01;100.00
53719;BME280;39616;48.872;9.390;2023-04-22T05:37:22;97704.31;;;9.04;100.00
53719;BME280;39616;48.872;9.390;2023-04-22T05:39:52;97706.81;;;9.14;100.00
53719;BME280;39616;48.872;9.390;2023-04-22T05:42:23;97709.91;;;9.21;100.00
53719;BME280;39616;48.872;9.390;2023-04-22T05:44:53;97713.81;;;9.29;100.00
53719;BME280;39616;48.872;9.390;2023-04-22T05:47:23;97702.78;;;9.39;100.00
53719;BME280;39616;48.872;9.390;2023-04-22T05:49:54;97700.63;;;9.50;100.00
53719;BME280;39616;48.872;9.390;2023-04-22T05:52:24;97706.59;;;9.60;100.00
53719;BME280;39616;48.872;9.390;2023-04-22T05:54:54;97707.97;;;9.72;100.00
53719;BME280;39616;48.872;9.390;2023-04-22T05:57:25;97705.84;;;9.82;100.00
53719;BME280;39616;48.872;9.390;2023-04-22T05:59:55;97711.53;;;9.95;100.00
53719;BME280;39616;48.872;9.390;2023-04-22T06:02:25;97705.75;;;10.10;100.00
53719;BME280;39616;48.872;9.390;2023-04-22T06:04:55;97716.97;;;10.17;100.00
53719;BME280;39616;48.872;9.390;2023-04-22T06:07:26;97712.91;;;10.28;98.05
53719;BME280;39616;48.872;9.390;2023-04-22T06:09:56;97724.91;;;10.36;94.80
53719;BME280;39616;48.872;9.390;2023-04-22T06:12:26;97726.44;;;10.51;92.60
53719;BME280;39616;48.872;9.390;2023-04-22T06:14:57;97736.09;;;10.66;90.45
53719;BME280;39616;48.872;9.390;2023-04-22T06:17:27;97727.56;;;10.81;87.78
53719;BME280;39616;48.872;9.390;2023-04-22T06:19:57;97735.44;;;11.00;88.34
53719;BME280;39616;48.872;9.390;2023-04-22T06:22:28;97727.22;;;11.13;88.45
53719;BME280;39616;48.872;9.390;2023-04-22T06:24:58;97733.94;;;11.16;88.84
53719;BME280;39616;48.872;9.390;2023-04-22T06:27:28;97730.25;;;11.21;89.03
53719;BME280;39616;48.872;9.390;2023-04-22T06:29:58;97734.63;;;11.30;88.37
53719;BME280;39616;48.872;9.390;2023-04-22T06:32:29;97738.97;;;11.49;88.43
53719;BME280;39616;48.872;9.390;2023-04-22T06:34:59;97736.47;;;11.78;89.05
53719;BME280;39616;48.872;9.390;2023-04-22T06:37:30;97729.13;;;12.05;86.11
53719;BME280;39616;48.872;9.390;2023-04-22T06:40:00;97732.31;;;12.24;82.49
53719;BME280;39616;48.872;9.390;2023-04-22T06:42:31;97726.53;;;12.43;79.90
53719;BME280;39616;48.872;9.390;2023-04-22T06:45:02;97734.03;;;12.64;77.75
53719;BME280;39616;48.872;9.390;2023-04-22T06:47:33;97738.91;;;12.88;75.82
53719;BME280;39616;48.872;9.390;2023-04-22T06:50:04;97730.47;;;13.10;75.45
53719;BME280;39616;48.872;9.390;2023-04-22T06:52:35;97732.66;;;13.34;73.34
53719;BME280;39616;48.872;9.390;2023-04-22T06:55:06;97730.28;;;13.53;72.02
53719;BME280;39616;48.872;9.390;2023-04-22T06:57:36;97730.06;;;13.67;71.17
53719;BME280;39616;48.872;9.390;2023-04-22T07:00:07;97730.13;;;13.80;70.74
53719;BME280;39616;48.872;9.390;2023-04-22T07:02:37;97731.84;;;13.84;70.56
53719;BME280;39616;48.872;9.390;2023-04-22T07:05:08;97726.00;;;13.94;70.07
53719;BME280;39616;48.872;9.390;2023-04-22T07:07:38;97734.44;;;14.01;69.95
53719;BME280;39616;48.872;9.390;2023-04-22T07:10:09;97732.09;;;14.12;69.63
53719;BME280;39616;48.872;9.390;2023-04-22T07:12:40;97731.03;;;14.25;69.31
53719;BME280;39616;48.872;9.390;2023-04-22T07:15:10;97735.28;;;14.35;69.83
53719;BME280;39616;48.872;9.390;2023-04-22T07:17:41;97731.63;;;14.52;69.07
53719;BME280;39616;48.872;9.390;2023-04-22T07:20:11;97722.91;;;14.71;67.36
53719;BME280;39616;48.872;9.390;2023-04-22T07:22:42;97719.56;;;14.98;65.93
53719;BME280;39616;48.872;9.390;2023-04-22T07:25:12;97720.22;;;15.20;64.55
53719;BME280;39616;48.872;9.390;2023-04-22T07:27:43;97718.28;;;15.57;62.91
53719;BME280;39616;48.872;9.390;2023-04-22T07:30:13;97714.16;;;15.76;64.42
53719;BME280;39616;48.872;9.390;2023-04-22T07:32:43;97715.16;;;15.96;63.79
53719;BME280;39616;48.872;9.390;2023-04-22T07:35:14;97720.97;;;15.94;60.73
53719;BME280;39616;48.872;9.390;2023-04-22T07:37:44;97722.00;;;16.02;60.38
53719;BME280;39616;48.872;9.390;2023-04-22T07:40:14;97707.31;;;16.22;59.61
53719;BME280;39616;48.872;9.390;2023-04-22T07:42:45;97706.81;;;16.32;58.52
53719;BME280;39616;48.872;9.390;2023-04-22T07:45:18;97705.28;;;16.63;57.97
53719;BME280;39616;48.872;9.390;2023-04-22T07:47:48;97702.25;;;16.80;57.28
53719;BME280;39616;48.872;9.390;2023-04-22T07:50:19;97706.94;;;17.11;55.94
53719;BME280;39616;48.872;9.390;2023-04-22T07:52:49;97692.72;;;17.22;55.88
53719;BME280;39616;48.872;9.390;2023-04-22T07:55:19;97696.50;;;17.33;56.42
53719;BME280;39616;48.872;9.390;2023-04-22T07:57:50;97685.16;;;17.50;55.90
53719;BME280;39616;48.872;9.390;2023-04-22T08:00:20;97687.94;;;17.70;55.81
53719;BME280;39616;48.872;9.390;2023-04-22T08:02:50;97691.09;;;17.88;55.27
53719;BME280;39616;48.872;9.390;2023-04-22T08:05:21;97697.13;;;17.97;55.42
53719;BME280;39616;48.872;9.390;2023-04-22T08:07:51;97692.31;;;18.29;53.62
53719;BME280;39616;48.872;9.390;2023-04-22T08:10:21;97701.03;;;18.15;53.34
53719;BME280;39616;48.872;9.390;2023-04-22T08:12:52;97698.59;;;18.10;53.73
53719;BME280;39616;48.872;9.390;2023-04-22T08:15:22;97702.00;;;18.23;53.66
53719;BME280;39616;48.872;9.390;2023-04-22T08:17:53;97703.31;;;18.09;54.08
53719;BME280;39616;48.872;9.390;2023-04-22T08:20:23;97697.88;;;18.32;54.85
53719;BME280;39616;48.872;9.390;2023-04-22T08:22:54;97702.13;;;18.49;53.88
53719;BME280;39616;48.872;9.390;2023-04-22T08:25:29;97711.53;;;18.29;54.11
53719;BME280;39616;48.872;9.390;2023-04-22T08:28:00;97713.34;;;18.21;55.24
53719;BME280;39616;48.872;9.390;2023-04-22T08:30:30;97707.41;;;18.39;55.19
53719;BME280;39616;48.872;9.390;2023-04-22T08:33:01;97717.75;;;18.45;52.21
53719;BME280;39616;48.872;9.390;2023-04-22T08:35:33;97710.19;;;18.62;49.20
53719;BME280;39616;48.872;9.390;2023-04-22T08:38:04;97712.16;;;18.61;49.49
53719;BME280;39616;48.872;9.390;2023-04-22T08:40:35;97713.72;;;18.62;51.25
53719;BME280;39616;48.872;9.390;2023-04-22T08:43:06;97711.47;;;18.45;48.85
53719;BME280;39616;48.872;9.390;2023-04-22T08:45:38;97714.25;;;18.29;49.87
53719;BME280;39616;48.872;9.390;2023-04-22T08:48:10;97711.91;;;18.27;51.96
53719;BME280;39616;48.872;9.390;2023-04-22T08:50:41;97716.38;;;18.35;50.38
53719;BME280;39616;48.872;9.390;2023-04-22T08:53:12;97710.06;;;18.54;50.56
53719;BME280;39616;48.872;9.390;2023-04-22T08:55:43;97712.75;;;18.93;50.64
53719;BME280;39616;48.872;9.390;2023-04-22T08:58:13;97709.06;;;19.58;48.88
53719;BME280;39616;48.872;9.390;2023-04-22T09:00:44;97710.09;;;19.73;47.68
53719;BME280;39616;48.872;9.390;2023-04-22T09:03:15;97711.59;;;19.97;47.21
53719;BME280;39616;48.872;9.390;2023-04-22T09:05:46;97712.50;;;20.05;46.27
53719;BME280;39616;48.872;9.390;2023-04-22T09:08:20;97704.63;;;20.07;47.22
53719;BME280;39616;48.872;9.390;2023-04-22T09:10:51;97705.19;;;20.49;45.86
53719;BME280;39616;48.872;9.390;2023-04-22T09:13:21;97706.41;;;20.93;44.42
53719;BME280;39616;48.872;9.390;2023-04-22T09:15:52;97700.66;;;21.12;43.32
53719;BME280;39616;48.872;9.390;2023-04-22T09:18:22;97696.88;;;21.31;43.41
53719;BME280;39616;48.872;9.390;2023-04-22T09:20:54;97701.50;;;21.68;43.47
53719;BME280;39616;48.872;9.390;2023-04-22T09:23:25;97699.47;;;21.61;43.13
53719;BME280;39616;48.872;9.390;2023-04-22T09:25:56;97695.69;;;21.84;43.54
53719;BME280;39616;48.872;9.390;2023-04-22T09:28:27;97686.44;;;22.31;41.78
53719;BME280;39616;48.872;9.390;2023-04-22T09:30:59;97693.94;;;22.34;41.05
53719;BME280;39616;48.872;9.390;2023-04-22T09:33:31;97694.00;;;22.52;41.12
53719;BME280;39616;48.872;9.390;2023-04-22T09:36:08;97687.69;;;22.55;39.95
53719;BME280;39616;48.872;9.390;2023-04-22T09:38:39;97678.16;;;22.31;40.80
53719;BME280;39616;48.872;9.390;2023-04-22T09:41:09;97685.13;;;22.04;41.08
53719;BME280;39616;48.872;9.390;2023-04-22T09:43:41;97676.84;;;22.00;40.79
53719;BME280;39616;48.872;9.390;2023-04-22T09:46:12;97685.69;;;22.41;40.16
53719;BME280;39616;48.872;9.390;2023-04-22T09:48:42;97680.56;;;22.40;40.41
53719;BME280;39616;48.872;9.390;2023-04-22T09:51:16;97682.28;;;21.86;41.08
53719;BME280;39616;48.872;9.390;2023-04-22T09:54:00;97676.75;;;21.86;41.37
53719;BME280;39616;48.872;9.390;2023-04-22T09:56:45;97668.78;;;22.68;39.70
53719;BME280;39616;48.872;9.390;2023-04-22T09:59:21;97674.38;;;23.00;38.10
53719;BME280;39616;48.872;9.390;2023-04-22T10:01:54;97675.97;;;22.98;38.15
53719;BME280;39616;48.872;9.390;2023-04-22T10:04:25;97669.19;;;23.56;37.18
53719;BME280;39616;48.872;9.390;2023-04-22T10:06:56;97666.41;;;23.52;38.80
53719;BME280;39616;48.872;9.390;2023-04-22T10:09:26;97664.50;;;23.10;39.73
53719;BME280;39616;48.872;9.390;2023-04-22T10:11:57;97655.34;;;23.70;38.23
53719;BME280;39616;48.872;9.390;2023-04-22T10:14:28;97650.63;;;22.71;39.09
53719;BME280;39616;48.872;9.390;2023-04-22T10:16:59;97658.97;;;23.31;38.20
53719;BME280;39616;48.872;9.390;2023-04-22T10:19:32;97654.56;;;23.48;37.96
53719;BME280;39616;48.872;9.390;2023-04-22T10:22:03;97651.38;;;23.71;37.66
53719;BME280;39616;48.872;9.390;2023-04-22T10:24:35;97658.13;;;23.49;37.26
53719;BME280;39616;48.872;9.390;2023-04-22T10:27:09;97654.19;;;23.50;35.85
53719;BME280;39616;48.872;9.390;2023-04-22T10:29:40;97646.69;;;23.50;36.96
53719;BME280;39616;48.872;9.390;2023-04-22T10:34:48;97641.59;;;23.20;37.54
53719;BME280;39616;48.872;9.390;2023-04-22T10:37:19;97651.78;;;23.55;36.42
53719;BME280;39616;48.872;9.390;2023-04-22T10:42:40;97641.94;;;23.40;37.06
53719;BME280;39616;48.872;9.390;2023-04-22T10:45:12;97635.44;;;24.04;38.04
53719;BME280;39616;48.872;9.390;2023-04-22T10:47:43;97637.34;;;24.21;35.89
53719;BME280;39616;48.872;9.390;2023-04-22T10:50:30;97631.94;;;23.93;36.38
53719;BME280;39616;48.872;9.390;2023-04-22T10:53:33;97632.41;;;23.77;34.70
53719;BME280;39616;48.872;9.390;2023-04-22T10:56:15;97625.22;;;23.97;34.84
53719;BME280;39616;48.872;9.390;2023-04-22T10:58:48;97627.75;;;24.44;35.13
53719;BME280;39616;48.872;9.390;2023-04-22T11:01:18;97621.09;;;24.30;34.32
53719;BME280;39616;48.872;9.390;2023-04-22T11:03:49;97619.03;;;24.49;36.74
53719;BME280;39616;48.872;9.390;2023-04-22T11:06:20;97619.06;;;24.38;33.71
53719;BME280;39616;48.872;9.390;2023-04-22T11:09:10;97617.78;;;24.57;35.06
53719;BME280;39616;48.872;9.390;2023-04-22T11:11:42;97613.78;;;24.62;34.73
53719;BME280;39616;48.872;9.390;2023-04-22T11:14:12;97618.56;;;24.61;36.20
53719;BME280;39616;48.872;9.390;2023-04-22T11:16:46;97623.50;;;24.88;35.64
53719;BME280;39616;48.872;9.390;2023-04-22T11:19:17;97613.97;;;24.26;32.99
53719;BME280;39616;48.872;9.390;2023-04-22T11:21:47;97619.00;;;24.52;32.19
53719;BME280;39616;48.872;9.390;2023-04-22T11:24:18;97612.97;;;24.68;33.55
53719;BME280;39616;48.872;9.390;2023-04-22T11:26:49;97611.47;;;25.05;33.94
53719;BME280;39616;48.872;9.390;2023-04-22T11:29:24;97615.94;;;25.37;32.33
53719;BME280;39616;48.872;9.390;2023-04-22T11:31:56;97617.22;;;25.28;31.42
53719;BME280;39616;48.872;9.390;2023-04-22T11:34:26;97613.50;;;24.49;32.65
53719;BME280;39616;48.872;9.390;2023-04-22T11:36:58;97617.47;;;24.41;34.87
53719;BME280;39616;48.872;9.390;2023-04-22T11:39:35;97611.13;;;24.96;33.06
53719;BME280;39616;48.872;9.390;2023-04-22T11:42:05;97597.88;;;24.03;34.13
53719;BME280;39616;48.872;9.390;2023-04-22T11:44:36;97601.19;;;24.53;34.19
53719;BME280;39616;48.872;9.390;2023-04-22T11:47:06;97600.31;;;24.67;34.71
53719;BME280;39616;48.872;9.390;2023-04-22T11:49:37;97590.78;;;24.68;32.30
53719;BME280;39616;48.872;9.390;2023-04-22T11:52:08;97592.91;;;24.98;33.88
53719;BME280;39616;48.872;9.390;2023-04-22T11:54:38;97599.00;;;25.27;31.16
53719;BME280;39616;48.872;9.390;2023-04-22T11:57:10;97590.22;;;25.33;31.14
53719;BME280;39616;48.872;9.390;2023-04-22T11:59:56;97590.41;;;25.52;30.36
53719;BME280;39616;48.872;9.390;2023-04-22T12:02:27;97601.56;;;25.49;31.12
53719;BME280;39616;48.872;9.390;2023-04-22T12:04:58;97593.16;;;25.56;32.21
53719;BME280;39616;48.872;9.390;2023-04-22T12:07:28;97595.28;;;25.45;32.04
53719;BME280;39616;48.872;9.390;2023-04-22T12:09:59;97586.16;;;25.44;30.12
53719;BME280;39616;48.872;9.390;2023-04-22T12:12:31;97593.13;;;25.18;32.59
53719;BME280;39616;48.872;9.390;2023-04-22T12:15:10;97604.22;;;24.70;33.28
53719;BME280;39616;48.872;9.390;2023-04-22T12:17:43;97589.53;;;24.76;33.51
53719;BME280;39616;48.872;9.390;2023-04-22T12:20:14;97584.19;;;24.48;32.49
53719;BME280;39616;48.872;9.390;2023-04-22T12:22:44;97572.94;;;24.69;31.66
53719;BME280;39616;48.872;9.390;2023-04-22T12:25:17;97576.28;;;24.46;33.63
53719;BME280;39616;48.872;9.390;2023-04-22T12:27:47;97575.13;;;24.44;33.39
53719;BME280;39616;48.872;9.390;2023-04-22T12:30:18;97570.88;;;24.80;35.00
53719;BME280;39616;48.872;9.390;2023-04-22T12:32:49;97568.38;;;24.97;32.91
53719;BME280;39616;48.872;9.390;2023-04-22T12:35:20;97581.38;;;24.55;33.45
53719;BME280;39616;48.872;9.390;2023-04-22T12:37:50;97572.34;;;24.44;33.75
53719;BME280;39616;48.872;9.390;2023-04-22T12:40:21;97574.38;;;24.29;34.35
53719;BME280;39616;48.872;9.390;2023-04-22T12:42:51;97575.97;;;24.26;34.53
53719;BME280;39616;48.872;9.390;2023-04-22T12:45:22;97575.97;;;24.26;36.44
53719;BME280;39616;48.872;9.390;2023-04-22T12:47:52;97577.72;;;24.02;34.29
53719;BME280;39616;48.872;9.390;2023-04-22T12:50:22;97568.28;;;23.89;34.04
53719;BME280;39616;48.872;9.390;2023-04-22T12:52:53;97573.13;;;23.67;34.78
53719;BME280;39616;48.872;9.390;2023-04-22T12:55:24;97576.28;;;23.66;35.33
53719;BME280;39616;48.872;9.390;2023-04-22T12:57:55;97577.47;;;23.68;37.38
53719;BME280;39616;48.872;9.390;2023-04-22T13:00:25;97578.28;;;23.58;35.10
53719;BME280;39616;48.872;9.390;2023-04-22T13:02:56;97586.59;;;23.47;36.52
53719;BME280;39616;48.872;9.390;2023-04-22T13:05:26;97578.72;;;23.42;35.54
53719;BME280;39616;48.872;9.390;2023-04-22T13:07:57;97574.75;;;23.47;37.20
53719;BME280;39616;48.872;9.390;2023-04-22T13:10:27;97579.44;;;23.64;36.88
53719;BME280;39616;48.872;9.390;2023-04-22T13:12:59;97570.75;;;23.73;36.00
53719;BME280;39616;48.872;9.390;2023-04-22T13:15:31;97577.06;;;23.59;35.92
53719;BME280;39616;48.872;9.390;2023-04-22T13:18:02;97579.84;;;23.59;37.05
53719;BME280;39616;48.872;9.390;2023-04-22T13:20:32;97575.16;;;23.42;36.28
53719;BME280;39616;48.872;9.390;2023-04-22T13:23:03;97569.69;;;23.24;35.91
53719;BME280;39616;48.872;9.390;2023-04-22T13:25:33;97566.00;;;23.62;35.13